createdAt,value
2018-07-27T00:00:22.671Z,27.70
2018-07-27T00:02:52.339Z,27.70
2018-07-27T00:05:21.978Z,27.70
2018-07-27T00:07:51.564Z,27.70
2018-07-27T00:10:21.213Z,27.70
2018-07-27T00:12:50.792Z,27.70
2018-07-27T00:15:20.389Z,27.70
2018-07-27T00:17:49.988Z,27.70
2018-07-27T00:20:19.678Z,27.60
2018-07-27T00:22:49.319Z,27.60
2018-07-27T00:25:18.955Z,27.60
2018-07-27T00:27:48.607Z,27.60
2018-07-27T00:30:18.245Z,27.60
2018-07-27T00:32:47.939Z,27.60
2018-07-27T00:35:17.540Z,27.60
2018-07-27T00:37:47.187Z,27.50
2018-07-27T00:40:16.758Z,27.50
2018-07-27T00:42:46.444Z,27.50
2018-07-27T00:45:16.089Z,27.50
2018-07-27T00:47:45.706Z,27.50
2018-07-27T00:50:15.439Z,27.50
2018-07-27T00:52:45.136Z,27.50
2018-07-27T00:55:14.735Z,27.40
2018-07-27T00:57:44.357Z,27.40
2018-07-27T01:00:14.034Z,27.40
2018-07-27T01:02:43.698Z,27.40
2018-07-27T01:05:13.358Z,27.40
2018-07-27T01:07:43.050Z,27.30
2018-07-27T01:10:12.807Z,27.30
2018-07-27T01:12:42.459Z,27.30
2018-07-27T01:15:12.154Z,27.30
2018-07-27T01:17:41.803Z,27.30
2018-07-27T01:20:11.450Z,27.30
2018-07-27T01:22:41.127Z,27.20
2018-07-27T01:25:10.864Z,27.20
2018-07-27T01:27:40.494Z,27.20
2018-07-27T01:30:10.217Z,27.20
2018-07-27T01:32:39.893Z,27.20
2018-07-27T01:35:09.558Z,27.20
2018-07-27T01:37:39.278Z,27.20
2018-07-27T01:40:08.973Z,27.20
2018-07-27T01:42:38.785Z,27.20
2018-07-27T01:45:08.502Z,27.10
2018-07-27T01:47:38.182Z,27.10
2018-07-27T01:50:07.895Z,27.10
2018-07-27T01:52:37.568Z,27.10
2018-07-27T01:55:07.462Z,27.10
2018-07-27T01:57:37.106Z,27.10
2018-07-27T02:00:07.151Z,27.00
2018-07-27T02:02:36.793Z,27.00
2018-07-27T02:05:07.691Z,27.00
2018-07-27T02:07:37.434Z,27.00
2018-07-27T02:10:07.081Z,27.00
2018-07-27T02:12:36.711Z,27.00
2018-07-27T02:15:07.838Z,27.00
2018-07-27T02:17:37.665Z,26.90
2018-07-27T02:20:07.376Z,26.90
2018-07-27T02:22:37.192Z,26.90
2018-07-27T02:25:07.053Z,26.90
2018-07-27T02:27:36.624Z,26.90
2018-07-27T02:30:06.636Z,26.90
2018-07-27T02:32:36.272Z,26.80
2018-07-27T02:35:06.557Z,26.80
2018-07-27T02:37:36.207Z,26.80
2018-07-27T02:40:06.449Z,26.80
2018-07-27T02:42:36.142Z,26.80
2018-07-27T02:45:06.491Z,26.80
2018-07-27T02:47:36.170Z,26.80
2018-07-27T02:50:06.122Z,26.70
2018-07-27T02:52:35.710Z,26.70
2018-07-27T02:55:05.406Z,26.70
2018-07-27T02:57:35.049Z,26.70
2018-07-27T03:00:04.840Z,26.70
2018-07-27T03:02:34.709Z,26.70
2018-07-27T03:05:04.478Z,26.60
2018-07-27T03:07:34.111Z,26.60
2018-07-27T03:10:03.930Z,26.60
2018-07-27T03:12:33.556Z,26.60
2018-07-27T03:15:03.255Z,26.60
2018-07-27T03:17:32.873Z,26.60
2018-07-27T03:20:02.460Z,26.60
2018-07-27T03:22:32.085Z,26.50
2018-07-27T03:25:01.687Z,26.50
2018-07-27T03:27:31.345Z,26.50
2018-07-27T03:30:00.920Z,26.50
2018-07-27T03:32:30.506Z,26.50
2018-07-27T03:35:00.144Z,26.40
2018-07-27T03:37:29.821Z,26.40
2018-07-27T03:39:59.426Z,26.40
2018-07-27T03:42:29.121Z,26.40
2018-07-27T03:44:58.850Z,26.40
2018-07-27T03:47:28.439Z,26.40
2018-07-27T03:49:58.050Z,26.30
2018-07-27T03:52:27.661Z,26.30
2018-07-27T03:54:57.333Z,26.30
2018-07-27T03:57:26.949Z,26.30
2018-07-27T03:59:56.559Z,26.30
2018-07-27T04:02:26.256Z,26.30
2018-07-27T04:04:55.847Z,26.30
2018-07-27T04:07:25.495Z,26.30
2018-07-27T04:09:55.176Z,26.20
2018-07-27T04:12:25.453Z,26.20
2018-07-27T04:14:55.610Z,26.20
2018-07-27T04:17:25.263Z,26.20
2018-07-27T04:19:54.914Z,26.20
2018-07-27T04:22:24.608Z,26.20
2018-07-27T04:24:54.255Z,26.10
2018-07-27T04:27:23.868Z,26.10
2018-07-27T04:29:53.499Z,26.10
2018-07-27T04:32:23.147Z,26.10
2018-07-27T04:34:52.767Z,26.10
2018-07-27T04:37:22.377Z,26.10
2018-07-27T04:39:52.038Z,26.10
2018-07-27T04:42:21.635Z,26.00
2018-07-27T04:44:51.289Z,26.00
2018-07-27T04:47:21.017Z,26.00
2018-07-27T04:49:50.626Z,26.00
2018-07-27T04:52:20.243Z,26.00
2018-07-27T04:54:49.844Z,26.00
2018-07-27T04:57:19.411Z,26.00
2018-07-27T04:59:49.047Z,26.00
2018-07-27T05:02:18.647Z,25.90
2018-07-27T05:04:48.487Z,25.90
2018-07-27T05:07:18.134Z,25.90
2018-07-27T05:09:47.712Z,25.90
2018-07-27T05:12:17.375Z,25.90
2018-07-27T05:14:47.039Z,25.90
2018-07-27T05:17:16.657Z,25.90
2018-07-27T05:19:46.271Z,25.90
2018-07-27T05:22:15.844Z,25.90
2018-07-27T05:24:45.449Z,25.90
2018-07-27T05:27:15.048Z,25.90
2018-07-27T05:29:44.671Z,25.90
2018-07-27T05:32:14.315Z,25.90
2018-07-27T05:34:43.914Z,25.90
2018-07-27T05:37:13.537Z,25.90
2018-07-27T05:39:43.198Z,25.90
2018-07-27T05:42:12.873Z,25.90
2018-07-27T05:44:42.486Z,25.90
2018-07-27T05:47:12.179Z,25.90
2018-07-27T05:49:41.801Z,25.90
2018-07-27T05:52:11.483Z,25.90
2018-07-27T05:54:41.170Z,25.90
2018-07-27T05:57:10.851Z,25.90
2018-07-27T05:59:40.506Z,26.00
2018-07-27T06:02:11.048Z,26.00
2018-07-27T06:04:40.724Z,26.00
2018-07-27T06:07:10.388Z,26.00
2018-07-27T06:09:39.983Z,26.00
2018-07-27T06:12:09.725Z,26.00
2018-07-27T06:14:39.371Z,26.00
2018-07-27T06:17:09.298Z,26.00
2018-07-27T06:19:39.063Z,26.00
2018-07-27T06:22:08.749Z,26.00
2018-07-27T06:24:47.878Z,26.10
2018-07-27T06:27:18.081Z,26.00
2018-07-27T06:29:48.348Z,26.10
2018-07-27T06:32:18.546Z,26.10
2018-07-27T06:34:48.344Z,26.10
2018-07-27T06:37:18.072Z,26.20
2018-07-27T06:39:47.822Z,26.10
2018-07-27T06:42:17.469Z,26.20
2018-07-27T06:44:47.115Z,26.20
2018-07-27T06:47:16.767Z,26.20
2018-07-27T06:49:46.354Z,26.20
2018-07-27T06:52:15.945Z,26.20
2018-07-27T06:54:45.558Z,26.30
2018-07-27T06:57:15.192Z,26.30
2018-07-27T06:59:44.838Z,26.30
2018-07-27T07:02:14.423Z,26.30
2018-07-27T07:04:44.055Z,26.30
2018-07-27T07:07:13.703Z,26.40
2018-07-27T07:09:43.337Z,26.40
2018-07-27T07:12:12.948Z,26.40
2018-07-27T07:14:43.424Z,26.40
2018-07-27T07:17:13.072Z,26.40
2018-07-27T07:19:42.731Z,26.50
2018-07-27T07:22:12.378Z,26.50
2018-07-27T07:24:42.035Z,26.50
2018-07-27T07:27:11.657Z,26.50
2018-07-27T07:29:41.300Z,26.60
2018-07-27T07:32:10.939Z,26.60
2018-07-27T07:34:40.544Z,26.60
2018-07-27T07:37:10.195Z,26.60
2018-07-27T07:39:39.826Z,26.70
2018-07-27T07:42:09.481Z,26.70
2018-07-27T07:44:39.209Z,26.70
2018-07-27T07:47:08.814Z,26.70
2018-07-27T07:49:38.419Z,26.80
2018-07-27T07:52:08.020Z,26.80
2018-07-27T07:54:37.619Z,26.80
2018-07-27T07:57:07.295Z,26.80
2018-07-27T07:59:36.951Z,26.90
2018-07-27T08:02:06.861Z,26.90
2018-07-27T08:04:36.486Z,26.90
2018-07-27T08:07:06.125Z,26.90
2018-07-27T08:09:35.774Z,27.00
2018-07-27T08:12:05.463Z,27.00
2018-07-27T08:14:35.109Z,27.00
2018-07-27T08:17:05.015Z,27.00
2018-07-27T08:19:34.734Z,27.10
2018-07-27T08:22:04.372Z,27.10
2018-07-27T08:24:34.013Z,27.10
2018-07-27T08:27:06.745Z,27.10
2018-07-27T08:29:38.265Z,27.20
2018-07-27T08:32:08.132Z,27.20
2018-07-27T08:34:37.829Z,27.20
2018-07-27T08:37:07.743Z,27.30
2018-07-27T08:39:38.693Z,27.30
2018-07-27T08:42:08.472Z,27.30
2018-07-27T08:44:40.315Z,27.30
2018-07-27T08:47:10.018Z,27.40
2018-07-27T08:49:39.702Z,27.40
2018-07-27T08:52:09.317Z,27.40
2018-07-27T08:54:38.906Z,27.50
2018-07-27T08:57:08.575Z,27.50
2018-07-27T08:59:38.268Z,27.50
2018-07-27T09:02:07.975Z,27.60
2018-07-27T09:04:37.606Z,27.60
2018-07-27T09:07:07.245Z,27.70
2018-07-27T09:09:36.878Z,27.70
2018-07-27T09:12:06.658Z,27.70
2018-07-27T09:14:36.283Z,27.70
2018-07-27T09:17:05.945Z,27.80
2018-07-27T09:19:35.544Z,27.80
2018-07-27T09:22:05.164Z,27.90
2018-07-27T09:24:34.864Z,27.90
2018-07-27T09:27:04.662Z,27.90
2018-07-27T09:29:34.340Z,28.00
2018-07-27T09:32:04.011Z,28.00
2018-07-27T09:34:33.597Z,28.10
2018-07-27T09:37:03.200Z,28.10
2018-07-27T09:39:32.811Z,28.20
2018-07-27T09:42:02.420Z,28.20
2018-07-27T09:44:32.020Z,28.30
2018-07-27T09:47:01.667Z,28.30
2018-07-27T09:49:31.303Z,28.40
2018-07-27T09:52:00.904Z,28.40
2018-07-27T09:54:30.531Z,28.50
2018-07-27T09:57:00.165Z,28.60
2018-07-27T09:59:29.789Z,28.60
2018-07-27T10:01:59.417Z,28.70
2018-07-27T10:04:29.030Z,28.80
2018-07-27T10:06:58.637Z,28.80
2018-07-27T10:09:28.242Z,28.90
2018-07-27T10:11:57.868Z,29.00
2018-07-27T10:14:27.495Z,29.10
2018-07-27T10:16:57.126Z,29.20
2018-07-27T10:19:26.749Z,29.30
2018-07-27T10:21:56.323Z,29.30
2018-07-27T10:24:25.938Z,29.40
2018-07-27T10:26:55.547Z,29.50
2018-07-27T10:29:25.178Z,29.60
2018-07-27T10:31:54.769Z,29.70
2018-07-27T10:34:27.055Z,29.80
2018-07-27T10:36:57.154Z,29.90
2018-07-27T10:39:26.791Z,30.00
2018-07-27T10:41:56.417Z,30.00
2018-07-27T10:44:26.023Z,30.20
2018-07-27T10:46:55.624Z,30.30
2018-07-27T10:49:25.265Z,30.30
2018-07-27T10:51:54.855Z,30.50
2018-07-27T10:54:24.489Z,30.60
2018-07-27T10:56:54.170Z,30.70
2018-07-27T10:59:23.778Z,30.80
2018-07-27T11:01:53.379Z,30.90
2018-07-27T11:04:23.136Z,31.00
2018-07-27T11:06:52.813Z,31.10
2018-07-27T11:09:22.445Z,31.20
2018-07-27T11:11:52.137Z,31.30
2018-07-27T11:14:21.712Z,31.40
2018-07-27T11:16:51.304Z,31.50
2018-07-27T11:19:20.940Z,31.60
2018-07-27T11:21:50.576Z,31.70
2018-07-27T11:24:20.242Z,31.80
2018-07-27T11:26:49.858Z,32.00
2018-07-27T11:29:19.521Z,32.10
2018-07-27T11:31:49.158Z,32.20
2018-07-27T11:34:18.751Z,32.30
2018-07-27T11:36:48.363Z,32.40
2018-07-27T11:39:18.016Z,32.50
2018-07-27T11:41:48.361Z,32.60
2018-07-27T11:44:17.934Z,32.80
2018-07-27T11:46:47.517Z,32.90
2018-07-27T11:49:17.200Z,33.00
2018-07-27T11:51:46.820Z,33.10
2018-07-27T11:54:16.421Z,33.20
2018-07-27T11:56:46.097Z,33.40
2018-07-27T11:59:15.697Z,33.50
2018-07-27T12:01:45.451Z,33.60
2018-07-27T12:06:44.085Z,33.80
2018-07-27T12:09:13.694Z,33.90
2018-07-27T12:11:43.327Z,34.00
2018-07-27T12:14:13.145Z,34.10
2018-07-27T12:19:11.631Z,34.30
2018-07-27T12:21:41.518Z,34.40
2018-07-27T12:24:10.929Z,34.50
2018-07-27T12:26:40.516Z,34.60
2018-07-27T12:31:39.166Z,34.90
2018-07-27T12:34:08.809Z,34.90
2018-07-27T12:36:38.434Z,35.00
2018-07-27T12:41:39.151Z,35.10
2018-07-27T12:44:08.762Z,35.20
2018-07-27T12:46:38.835Z,35.30
2018-07-27T12:49:08.787Z,35.40
2018-07-27T12:51:38.604Z,35.40
2018-07-27T12:54:08.222Z,35.40
2018-07-27T12:56:37.809Z,35.50
2018-07-27T12:59:07.543Z,35.50
2018-07-27T13:01:37.311Z,35.60
2018-07-27T13:04:06.941Z,35.60
2018-07-27T13:06:36.550Z,35.60
2018-07-27T13:09:08.555Z,35.60
2018-07-27T13:11:38.204Z,35.60
2018-07-27T13:14:08.008Z,35.60
2018-07-27T13:16:37.656Z,35.60
2018-07-27T13:19:07.270Z,35.60
2018-07-27T13:21:36.911Z,35.50
2018-07-27T13:24:06.560Z,35.50
2018-07-27T13:26:36.247Z,35.50
2018-07-27T13:29:05.957Z,35.40
2018-07-27T13:34:35.405Z,35.40
2018-07-27T13:37:05.167Z,35.30
2018-07-27T13:39:35.207Z,35.20
2018-07-27T13:42:05.884Z,35.20
2018-07-27T13:44:36.692Z,35.10
2018-07-27T13:47:06.845Z,35.10
2018-07-27T13:49:36.531Z,35.00
2018-07-27T13:52:06.212Z,35.00
2018-07-27T13:54:36.346Z,34.90
2018-07-27T13:57:06.000Z,34.90
2018-07-27T13:59:35.622Z,34.90
2018-07-27T14:02:05.606Z,34.80
2018-07-27T14:04:35.233Z,34.70
2018-07-27T14:09:34.859Z,34.60
2018-07-27T14:12:04.666Z,34.60
2018-07-27T14:14:34.321Z,34.60
2018-07-27T14:17:03.996Z,34.50
2018-07-27T14:19:34.596Z,34.50
2018-07-27T14:22:04.302Z,34.40
2018-07-27T14:24:33.924Z,34.30
2018-07-27T14:27:03.585Z,34.30
2018-07-27T14:29:33.223Z,34.20
2018-07-27T14:32:02.921Z,34.20
2018-07-27T14:34:32.568Z,34.10
2018-07-27T14:37:02.253Z,34.10
2018-07-27T14:39:31.940Z,34.00
2018-07-27T14:42:01.530Z,34.00
2018-07-27T14:44:31.196Z,33.90
2018-07-27T14:47:00.755Z,33.90
2018-07-27T14:49:30.375Z,33.90
2018-07-27T14:51:59.969Z,33.80
2018-07-27T14:54:29.617Z,33.80
2018-07-27T14:56:59.267Z,33.70
2018-07-27T14:59:28.885Z,33.70
2018-07-27T15:01:58.524Z,33.60
2018-07-27T15:04:28.157Z,33.60
2018-07-27T15:06:57.761Z,33.60
2018-07-27T15:09:27.370Z,33.50
2018-07-27T15:11:56.992Z,33.50
2018-07-27T15:14:26.578Z,33.40
2018-07-27T15:16:56.214Z,33.40
2018-07-27T15:19:25.815Z,33.40
2018-07-27T15:21:55.493Z,33.40
2018-07-27T15:24:25.151Z,33.30
2018-07-27T15:26:55.964Z,33.40
2018-07-27T15:29:25.632Z,33.30
2018-07-27T15:31:55.236Z,33.40
2018-07-27T15:34:26.364Z,33.30
2018-07-27T15:37:07.636Z,33.40
2018-07-27T15:39:44.189Z,33.30
2018-07-27T15:42:18.403Z,33.30
2018-07-27T15:47:24.008Z,33.30
2018-07-27T15:52:35.530Z,33.30
2018-07-27T15:55:12.214Z,33.30
2018-07-27T15:57:49.023Z,33.30
2018-07-27T16:00:28.506Z,33.30
2018-07-27T16:03:02.444Z,33.30
2018-07-27T16:05:46.081Z,33.20
2018-07-27T16:08:24.526Z,33.20
2018-07-27T16:11:02.447Z,33.20
2018-07-27T16:13:38.004Z,33.20
2018-07-27T16:16:13.099Z,33.10
2018-07-27T16:18:48.824Z,33.10
2018-07-27T16:21:22.304Z,33.10
2018-07-27T16:23:53.016Z,33.00
2018-07-27T16:26:26.197Z,32.90
2018-07-27T16:28:59.246Z,32.90
2018-07-27T16:31:34.753Z,32.80
2018-07-27T16:34:12.577Z,32.80
2018-07-27T16:36:50.707Z,32.70
2018-07-27T16:39:34.816Z,32.70
2018-07-27T16:42:10.814Z,32.60
2018-07-27T16:44:43.936Z,32.60
2018-07-27T16:47:15.882Z,32.50
2018-07-27T16:49:52.198Z,32.50
2018-07-27T16:52:27.609Z,32.40
2018-07-27T16:54:59.567Z,32.40
2018-07-27T17:00:06.829Z,32.30
2018-07-27T17:02:41.240Z,32.20
2018-07-27T17:05:14.149Z,32.10
2018-07-27T17:07:48.127Z,32.10
2018-07-27T17:10:21.774Z,32.10
2018-07-27T17:12:55.578Z,32.00
2018-07-27T17:15:29.648Z,32.00
2018-07-27T17:18:07.336Z,32.00
2018-07-27T17:20:43.278Z,32.00
2018-07-27T17:23:19.269Z,31.90
2018-07-27T17:25:54.760Z,31.90
2018-07-27T17:28:29.675Z,31.90
2018-07-27T17:31:04.986Z,31.90
2018-07-27T17:33:46.058Z,31.90
2018-07-27T17:36:21.257Z,31.90
2018-07-27T17:39:00.533Z,31.80
2018-07-27T17:41:35.691Z,31.80
2018-07-27T17:44:11.556Z,31.80
2018-07-27T17:46:49.586Z,31.70
2018-07-27T17:51:58.295Z,31.60
2018-07-27T17:54:32.362Z,31.60
2018-07-27T17:57:06.052Z,31.60
2018-07-27T17:59:40.454Z,31.50
2018-07-27T18:02:14.161Z,31.40
2018-07-27T18:04:49.066Z,31.40
2018-07-27T18:07:26.734Z,31.30
2018-07-27T18:10:01.518Z,31.30
2018-07-27T18:12:40.547Z,31.20
2018-07-27T18:15:15.292Z,31.20
2018-07-27T18:17:52.400Z,31.10
2018-07-27T18:20:28.002Z,31.10
2018-07-27T18:23:01.480Z,31.00
2018-07-27T18:25:42.263Z,30.90
2018-07-27T18:28:16.803Z,30.80
2018-07-27T18:30:57.614Z,30.80
2018-07-27T18:33:34.088Z,30.70
2018-07-27T18:36:15.212Z,30.60
2018-07-27T18:38:53.957Z,30.50
2018-07-27T18:41:31.653Z,30.40
2018-07-27T18:44:05.160Z,30.40
2018-07-27T18:46:41.097Z,30.30
2018-07-27T18:49:19.043Z,30.20
2018-07-27T18:51:54.357Z,30.20
2018-07-27T18:54:39.668Z,30.10
2018-07-27T18:57:18.294Z,30.10
2018-07-27T19:00:01.495Z,30.10
2018-07-27T19:02:40.763Z,30.00
2018-07-27T19:05:14.804Z,29.90
2018-07-27T19:08:00.910Z,29.90
2018-07-27T19:10:38.250Z,29.80
2018-07-27T19:13:11.722Z,29.70
2018-07-27T19:15:45.371Z,29.60
2018-07-27T19:18:16.232Z,29.60
2018-07-27T19:20:45.884Z,29.50
2018-07-27T19:23:17.164Z,29.50
2018-07-27T19:25:47.091Z,29.40
2018-07-27T19:28:16.687Z,29.40
2018-07-27T19:30:46.322Z,29.30
2018-07-27T19:33:15.952Z,29.30
2018-07-27T19:35:45.598Z,29.20
2018-07-27T19:38:15.237Z,29.20
2018-07-27T19:40:44.850Z,29.10
2018-07-27T19:43:14.482Z,29.10
2018-07-27T19:45:51.994Z,29.00
2018-07-27T19:48:27.692Z,29.00
2018-07-27T19:51:03.229Z,29.00
2018-07-27T19:53:36.987Z,28.90
2018-07-27T19:56:07.215Z,28.90
2018-07-27T19:58:36.854Z,28.80
2018-07-27T20:01:06.498Z,28.80
2018-07-27T20:03:36.153Z,28.70
2018-07-27T20:06:05.929Z,28.70
2018-07-27T20:08:53.304Z,28.60
2018-07-27T20:11:29.928Z,28.60
2018-07-27T20:14:09.134Z,28.50
2018-07-27T20:16:51.815Z,28.60
2018-07-27T20:19:29.599Z,28.60
2018-07-27T20:22:09.460Z,28.60
2018-07-27T20:24:43.858Z,28.60
2018-07-27T20:27:20.114Z,28.70
2018-07-27T20:29:54.877Z,28.70
2018-07-27T20:32:31.842Z,28.70
2018-07-27T20:35:07.662Z,28.70
2018-07-27T20:37:59.346Z,28.70
2018-07-27T20:40:42.299Z,28.80
2018-07-27T20:46:08.055Z,28.80
2018-07-27T20:48:45.376Z,28.80
2018-07-27T20:51:29.406Z,28.90
2018-07-27T20:54:03.142Z,28.90
2018-07-27T20:56:36.032Z,28.90
2018-07-27T20:59:10.521Z,28.90
2018-07-27T21:01:45.758Z,28.90
2018-07-27T21:04:19.421Z,28.90
2018-07-27T21:07:02.507Z,28.90
2018-07-27T21:09:49.342Z,28.90
2018-07-27T21:12:30.301Z,28.90
2018-07-27T21:15:13.147Z,28.90
2018-07-27T21:17:54.844Z,28.90
2018-07-27T21:20:31.454Z,28.90
2018-07-27T21:23:10.755Z,28.80
2018-07-27T21:25:43.348Z,28.90
2018-07-27T21:28:17.691Z,28.90
2018-07-27T21:30:52.494Z,28.90
2018-07-27T21:33:29.000Z,28.80
2018-07-27T21:36:07.253Z,28.90
2018-07-27T21:38:48.656Z,28.90
2018-07-27T21:41:25.821Z,28.80
2018-07-27T21:44:05.987Z,28.80
2018-07-27T21:46:50.511Z,28.80
2018-07-27T21:49:32.718Z,28.80
2018-07-27T21:52:15.718Z,28.80
2018-07-27T21:54:49.726Z,28.80
2018-07-27T21:57:25.459Z,28.80
2018-07-27T22:00:03.222Z,28.80
2018-07-27T22:02:34.976Z,28.80
2018-07-27T22:05:17.176Z,28.80
2018-07-27T22:08:01.246Z,28.80
2018-07-27T22:16:02.341Z,28.70
2018-07-27T22:18:37.988Z,28.70
2018-07-27T22:21:17.602Z,28.70
2018-07-27T22:24:00.109Z,28.70
2018-07-27T22:26:37.035Z,28.70
2018-07-27T22:29:16.810Z,28.70
2018-07-27T22:31:51.894Z,28.70
2018-07-27T22:34:28.065Z,28.60
2018-07-27T22:37:01.159Z,28.60
2018-07-27T22:39:45.168Z,28.60
2018-07-27T22:42:30.782Z,28.60
2018-07-27T22:45:09.562Z,28.60
2018-07-27T22:47:49.204Z,28.60
2018-07-27T22:50:26.840Z,28.60
2018-07-27T22:55:55.034Z,28.60
2018-07-27T22:58:36.673Z,28.50
2018-07-27T23:01:14.248Z,28.50
2018-07-27T23:03:55.655Z,28.50
2018-07-27T23:06:34.002Z,28.50
2018-07-27T23:09:16.072Z,28.50
2018-07-27T23:12:01.450Z,28.50
2018-07-27T23:14:41.209Z,28.50
2018-07-27T23:17:16.984Z,28.40
2018-07-27T23:19:56.131Z,28.40
2018-07-27T23:22:31.258Z,28.40
2018-07-27T23:25:17.221Z,28.40
2018-07-27T23:30:50.857Z,28.40
2018-07-27T23:33:26.543Z,28.40
2018-07-27T23:36:09.050Z,28.30
2018-07-27T23:38:52.844Z,28.30
2018-07-27T23:41:33.198Z,28.30
2018-07-27T23:44:12.853Z,28.30
2018-07-27T23:49:29.023Z,28.30
2018-07-27T23:52:07.884Z,28.20
2018-07-27T23:54:44.116Z,28.20
2018-07-27T23:57:20.453Z,28.20
2018-07-27T23:59:59.265Z,28.20
